sensor_id;sensor_type;location;lat;lon;timestamp;temperature;humidity
24802;DHT22;12898;50.520;12.152;2023-01-08T00:00:46;5.70;99.90
24802;DHT22;12898;50.520;12.152;2023-01-08T00:03:12;5.70;99.90
24802;DHT22;12898;50.520;12.152;2023-01-08T00:05:38;5.70;99.90
24802;DHT22;12898;50.520;12.152;2023-01-08T00:08:05;5.60;99.90
24802;DHT22;12898;50.520;12.152;2023-01-08T00:10:36;5.60;99.90
24802;DHT22;12898;50.520;12.152;2023-01-08T00:13:03;5.60;99.90
24802;DHT22;12898;50.520;12.152;2023-01-08T00:15:29;5.50;99.90
24802;DHT22;12898;50.520;12.152;2023-01-08T00:17:56;5.50;99.90
24802;DHT22;12898;50.520;12.152;2023-01-08T00:20:22;5.50;99.90
24802;DHT22;12898;50.520;12.152;2023-01-08T00:22:49;5.50;99.90
24802;DHT22;12898;50.520;12.152;2023-01-08T00:25:15;5.50;99.90
24802;DHT22;12898;50.520;12.152;2023-01-08T00:27:41;5.50;99.90
24802;DHT22;12898;50.520;12.152;2023-01-08T00:30:07;5.40;99.90
24802;DHT22;12898;50.520;12.152;2023-01-08T00:32:33;5.40;99.90
24802;DHT22;12898;50.520;12.152;2023-01-08T00:34:59;5.50;99.90
24802;DHT22;12898;50.520;12.152;2023-01-08T00:37:26;5.40;99.90
24802;DHT22;12898;50.520;12.152;2023-01-08T00:39:52;5.50;99.90
24802;DHT22;12898;50.520;12.152;2023-01-08T00:42:18;5.40;99.90
24802;DHT22;12898;50.520;12.152;2023-01-08T00:44:43;5.40;99.90
24802;DHT22;12898;50.520;12.152;2023-01-08T00:47:09;5.40;99.90
24802;DHT22;12898;50.520;12.152;2023-01-08T00:49:34;5.50;99.90
24802;DHT22;12898;50.520;12.152;2023-01-08T00:52:00;5.40;99.90
24802;DHT22;12898;50.520;12.152;2023-01-08T00:54:26;5.40;99.90
24802;DHT22;12898;50.520;12.152;2023-01-08T00:56:54;5.40;99.90
24802;DHT22;12898;50.520;12.152;2023-01-08T00:59:20;5.40;99.90
24802;DHT22;12898;50.520;12.152;2023-01-08T01:01:46;5.30;99.90
24802;DHT22;12898;50.520;12.152;2023-01-08T01:04:11;5.30;99.90
24802;DHT22;12898;50.520;12.152;2023-01-08T01:06:41;5.20;99.90
24802;DHT22;12898;50.520;12.152;2023-01-08T01:09:07;5.20;99.90
24802;DHT22;12898;50.520;12.152;2023-01-08T01:11:33;5.20;99.90
24802;DHT22;12898;50.520;12.152;2023-01-08T01:13:59;5.20;99.90
24802;DHT22;12898;50.520;12.152;2023-01-08T01:16:25;5.20;99.90
24802;DHT22;12898;50.520;12.152;2023-01-08T01:18:51;5.20;99.90
24802;DHT22;12898;50.520;12.152;2023-01-08T01:21:25;5.20;99.90
24802;DHT22;12898;50.520;12.152;2023-01-08T01:23:54;5.20;99.90
24802;DHT22;12898;50.520;12.152;2023-01-08T01:26:21;5.20;99.90
24802;DHT22;12898;50.520;12.152;2023-01-08T01:28:49;5.20;99.90
24802;DHT22;12898;50.520;12.152;2023-01-08T01:31:17;5.30;99.90
24802;DHT22;12898;50.520;12.152;2023-01-08T01:33:44;5.30;99.90
24802;DHT22;12898;50.520;12.152;2023-01-08T01:36:14;5.40;99.90
24802;DHT22;12898;50.520;12.152;2023-01-08T01:38:45;5.40;99.90
24802;DHT22;12898;50.520;12.152;2023-01-08T01:41:30;5.40;99.90
24802;DHT22;12898;50.520;12.152;2023-01-08T01:44:43;5.40;99.90
24802;DHT22;12898;50.520;12.152;2023-01-08T01:47:24;5.40;99.90
24802;DHT22;12898;50.520;12.152;2023-01-08T01:50:03;5.40;99.90
24802;DHT22;12898;50.520;12.152;2023-01-08T01:52:33;5.40;99.90
24802;DHT22;12898;50.520;12.152;2023-01-08T01:55:05;5.40;99.90
24802;DHT22;12898;50.520;12.152;2023-01-08T01:57:32;5.40;99.90
24802;DHT22;12898;50.520;12.152;2023-01-08T01:59:59;5.30;99.90
24802;DHT22;12898;50.520;12.152;2023-01-08T02:02:26;5.40;99.90
24802;DHT22;12898;50.520;12.152;2023-01-08T02:04:51;5.40;99.90
24802;DHT22;12898;50.520;12.152;2023-01-08T02:07:27;5.40;99.90
24802;DHT22;12898;50.520;12.152;2023-01-08T02:10:09;5.40;99.90
24802;DHT22;12898;50.520;12.152;2023-01-08T02:13:10;5.40;99.90
24802;DHT22;12898;50.520;12.152;2023-01-08T02:15:43;5.50;99.90
24802;DHT22;12898;50.520;12.152;2023-01-08T02:18:20;5.50;99.90
24802;DHT22;12898;50.520;12.152;2023-01-08T02:20:54;5.60;99.90
24802;DHT22;12898;50.520;12.152;2023-01-08T02:23:26;5.60;99.90
24802;DHT22;12898;50.520;12.152;2023-01-08T02:28:57;5.60;99.90
24802;DHT22;12898;50.520;12.152;2023-01-08T02:31:43;5.60;99.90
24802;DHT22;12898;50.520;12.152;2023-01-08T02:34:10;5.60;99.90
24802;DHT22;12898;50.520;12.152;2023-01-08T02:36:51;5.70;99.90
24802;DHT22;12898;50.520;12.152;2023-01-08T02:45:47;5.60;99.90
24802;DHT22;12898;50.520;12.152;2023-01-08T02:51:28;5.60;99.90
24802;DHT22;12898;50.520;12.152;2023-01-08T02:54:02;5.50;99.90
24802;DHT22;12898;50.520;12.152;2023-01-08T02:56:35;5.40;99.90
24802;DHT22;12898;50.520;12.152;2023-01-08T02:59:04;5.30;99.90
24802;DHT22;12898;50.520;12.152;2023-01-08T03:01:32;5.30;99.90
24802;DHT22;12898;50.520;12.152;2023-01-08T03:04:03;5.20;99.90
24802;DHT22;12898;50.520;12.152;2023-01-08T03:06:32;5.20;99.90
24802;DHT22;12898;50.520;12.152;2023-01-08T03:08:59;5.20;99.90
24802;DHT22;12898;50.520;12.152;2023-01-08T03:11:29;5.20;99.90
24802;DHT22;12898;50.520;12.152;2023-01-08T03:14:10;5.20;99.90
24802;DHT22;12898;50.520;12.152;2023-01-08T03:16:41;5.20;99.90
24802;DHT22;12898;50.520;12.152;2023-01-08T03:19:35;5.30;99.90
24802;DHT22;12898;50.520;12.152;2023-01-08T03:22:08;5.30;99.90
24802;DHT22;12898;50.520;12.152;2023-01-08T03:24:37;5.20;99.90
24802;DHT22;12898;50.520;12.152;2023-01-08T03:27:06;5.20;99.90
24802;DHT22;12898;50.520;12.152;2023-01-08T03:29:35;5.20;99.90
24802;DHT22;12898;50.520;12.152;2023-01-08T03:32:04;5.10;99.90
24802;DHT22;12898;50.520;12.152;2023-01-08T03:34:37;5.00;99.90
24802;DHT22;12898;50.520;12.152;2023-01-08T03:37:06;5.00;99.90
24802;DHT22;12898;50.520;12.152;2023-01-08T03:39:41;5.00;99.90
24802;DHT22;12898;50.520;12.152;2023-01-08T03:42:12;4.90;99.90
24802;DHT22;12898;50.520;12.152;2023-01-08T03:44:38;5.00;99.90
24802;DHT22;12898;50.520;12.152;2023-01-08T03:47:05;5.00;99.90
24802;DHT22;12898;50.520;12.152;2023-01-08T03:49:33;4.90;99.90
24802;DHT22;12898;50.520;12.152;2023-01-08T03:51:59;4.90;99.90
24802;DHT22;12898;50.520;12.152;2023-01-08T03:54:30;5.00;99.90
24802;DHT22;12898;50.520;12.152;2023-01-08T03:56:57;5.00;99.90
24802;DHT22;12898;50.520;12.152;2023-01-08T03:59:23;5.10;99.90
24802;DHT22;12898;50.520;12.152;2023-01-08T04:01:49;5.20;99.90
24802;DHT22;12898;50.520;12.152;2023-01-08T04:04:15;5.20;99.90
24802;DHT22;12898;50.520;12.152;2023-01-08T04:06:41;5.20;99.90
24802;DHT22;12898;50.520;12.152;2023-01-08T04:09:07;5.20;99.90
24802;DHT22;12898;50.520;12.152;2023-01-08T04:11:33;5.20;99.90
24802;DHT22;12898;50.520;12.152;2023-01-08T04:14:01;5.10;99.90
24802;DHT22;12898;50.520;12.152;2023-01-08T04:16:27;5.10;99.90
24802;DHT22;12898;50.520;12.152;2023-01-08T04:18:53;5.10;99.90
24802;DHT22;12898;50.520;12.152;2023-01-08T04:21:18;5.10;99.90
24802;DHT22;12898;50.520;12.152;2023-01-08T04:23:44;5.10;99.90
24802;DHT22;12898;50.520;12.152;2023-01-08T04:26:10;5.00;99.90
24802;DHT22;12898;50.520;12.152;2023-01-08T04:28:35;5.00;99.90
24802;DHT22;12898;50.520;12.152;2023-01-08T04:31:08;5.00;99.90
24802;DHT22;12898;50.520;12.152;2023-01-08T04:33:34;5.00;99.90
24802;DHT22;12898;50.520;12.152;2023-01-08T04:36:01;5.00;99.90
24802;DHT22;12898;50.520;12.152;2023-01-08T04:38:27;5.00;99.90
24802;DHT22;12898;50.520;12.152;2023-01-08T04:41:00;5.00;99.90
24802;DHT22;12898;50.520;12.152;2023-01-08T04:43:27;4.90;99.90
24802;DHT22;12898;50.520;12.152;2023-01-08T04:45:57;4.90;99.90
24802;DHT22;12898;50.520;12.152;2023-01-08T04:48:24;4.90;99.90
24802;DHT22;12898;50.520;12.152;2023-01-08T04:50:50;4.90;99.90
24802;DHT22;12898;50.520;12.152;2023-01-08T04:53:16;4.80;99.90
24802;DHT22;12898;50.520;12.152;2023-01-08T04:55:42;4.80;99.90
24802;DHT22;12898;50.520;12.152;2023-01-08T04:58:07;4.70;99.90
24802;DHT22;12898;50.520;12.152;2023-01-08T05:00:33;4.70;99.90
24802;DHT22;12898;50.520;12.152;2023-01-08T05:02:59;4.70;99.90
24802;DHT22;12898;50.520;12.152;2023-01-08T05:05:25;4.60;99.90
24802;DHT22;12898;50.520;12.152;2023-01-08T05:07:50;4.60;99.90
24802;DHT22;12898;50.520;12.152;2023-01-08T05:10:18;4.60;99.90
24802;DHT22;12898;50.520;12.152;2023-01-08T05:12:43;4.60;99.90
24802;DHT22;12898;50.520;12.152;2023-01-08T05:15:09;4.60;99.90
24802;DHT22;12898;50.520;12.152;2023-01-08T05:17:35;4.60;99.90
24802;DHT22;12898;50.520;12.152;2023-01-08T05:20:00;4.60;99.90
24802;DHT22;12898;50.520;12.152;2023-01-08T05:22:26;4.50;99.90
24802;DHT22;12898;50.520;12.152;2023-01-08T05:24:52;4.50;99.90
24802;DHT22;12898;50.520;12.152;2023-01-08T05:27:17;4.40;99.90
24802;DHT22;12898;50.520;12.152;2023-01-08T05:29:43;4.50;99.90
24802;DHT22;12898;50.520;12.152;2023-01-08T05:32:14;4.40;99.90
24802;DHT22;12898;50.520;12.152;2023-01-08T05:34:40;4.40;99.90
24802;DHT22;12898;50.520;12.152;2023-01-08T05:37:06;4.50;99.90
24802;DHT22;12898;50.520;12.152;2023-01-08T05:39:31;4.50;99.90
24802;DHT22;12898;50.520;12.152;2023-01-08T05:41:57;4.50;99.90
24802;DHT22;12898;50.520;12.152;2023-01-08T05:44:23;4.60;99.90
24802;DHT22;12898;50.520;12.152;2023-01-08T05:46:48;4.70;99.90
24802;DHT22;12898;50.520;12.152;2023-01-08T05:49:14;4.80;99.90
24802;DHT22;12898;50.520;12.152;2023-01-08T05:51:40;4.80;99.90
24802;DHT22;12898;50.520;12.152;2023-01-08T05:54:05;4.70;99.90
24802;DHT22;12898;50.520;12.152;2023-01-08T05:56:32;4.70;99.90
24802;DHT22;12898;50.520;12.152;2023-01-08T05:58:57;4.70;99.90
24802;DHT22;12898;50.520;12.152;2023-01-08T06:01:23;4.60;99.90
24802;DHT22;12898;50.520;12.152;2023-01-08T06:03:49;4.60;99.90
24802;DHT22;12898;50.520;12.152;2023-01-08T06:06:15;4.60;99.90
24802;DHT22;12898;50.520;12.152;2023-01-08T06:08:41;4.60;99.90
24802;DHT22;12898;50.520;12.152;2023-01-08T06:11:07;4.60;99.90
24802;DHT22;12898;50.520;12.152;2023-01-08T06:13:34;4.60;99.90
24802;DHT22;12898;50.520;12.152;2023-01-08T06:16:02;4.70;99.90
24802;DHT22;12898;50.520;12.152;2023-01-08T06:18:28;4.70;99.90
24802;DHT22;12898;50.520;12.152;2023-01-08T06:20:54;4.70;99.90
24802;DHT22;12898;50.520;12.152;2023-01-08T06:23:20;4.70;99.90
24802;DHT22;12898;50.520;12.152;2023-01-08T06:25:51;4.70;99.90
24802;DHT22;12898;50.520;12.152;2023-01-08T06:28:18;4.60;99.90
24802;DHT22;12898;50.520;12.152;2023-01-08T06:30:44;4.60;99.90
24802;DHT22;12898;50.520;12.152;2023-01-08T06:33:10;4.60;99.90
24802;DHT22;12898;50.520;12.152;2023-01-08T06:35:35;4.60;99.90
24802;DHT22;12898;50.520;12.152;2023-01-08T06:38:01;4.50;99.90
24802;DHT22;12898;50.520;12.152;2023-01-08T06:40:27;4.50;99.90
24802;DHT22;12898;50.520;12.152;2023-01-08T06:42:53;4.40;99.90
24802;DHT22;12898;50.520;12.152;2023-01-08T06:45:18;4.40;99.90
24802;DHT22;12898;50.520;12.152;2023-01-08T06:47:44;4.30;99.90
24802;DHT22;12898;50.520;12.152;2023-01-08T06:50:10;4.20;99.90
24802;DHT22;12898;50.520;12.152;2023-01-08T06:52:37;4.20;99.90
24802;DHT22;12898;50.520;12.152;2023-01-08T06:55:03;4.10;99.90
24802;DHT22;12898;50.520;12.152;2023-01-08T06:57:30;4.00;99.90
24802;DHT22;12898;50.520;12.152;2023-01-08T06:59:56;3.90;99.90
24802;DHT22;12898;50.520;12.152;2023-01-08T07:02:22;3.80;99.90
24802;DHT22;12898;50.520;12.152;2023-01-08T07:04:48;3.70;99.90
24802;DHT22;12898;50.520;12.152;2023-01-08T07:07:14;3.60;99.90
24802;DHT22;12898;50.520;12.152;2023-01-08T07:09:41;3.60;99.90
24802;DHT22;12898;50.520;12.152;2023-01-08T07:12:11;3.40;99.90
24802;DHT22;12898;50.520;12.152;2023-01-08T07:14:38;3.40;99.90
24802;DHT22;12898;50.520;12.152;2023-01-08T07:17:04;3.30;99.90
24802;DHT22;12898;50.520;12.152;2023-01-08T07:19:29;3.40;99.90
24802;DHT22;12898;50.520;12.152;2023-01-08T07:21:56;3.40;99.90
24802;DHT22;12898;50.520;12.152;2023-01-08T07:24:21;3.50;99.90
24802;DHT22;12898;50.520;12.152;2023-01-08T07:26:47;3.60;99.90
24802;DHT22;12898;50.520;12.152;2023-01-08T07:29:13;3.80;99.90
24802;DHT22;12898;50.520;12.152;2023-01-08T07:31:38;3.90;99.90
24802;DHT22;12898;50.520;12.152;2023-01-08T07:34:04;4.10;99.90
24802;DHT22;12898;50.520;12.152;2023-01-08T07:36:30;4.10;99.90
24802;DHT22;12898;50.520;12.152;2023-01-08T07:38:56;4.20;99.90
24802;DHT22;12898;50.520;12.152;2023-01-08T07:41:22;4.20;99.90
24802;DHT22;12898;50.520;12.152;2023-01-08T07:43:47;4.30;99.90
24802;DHT22;12898;50.520;12.152;2023-01-08T07:46:14;4.30;99.90
24802;DHT22;12898;50.520;12.152;2023-01-08T07:48:40;4.50;99.90
24802;DHT22;12898;50.520;12.152;2023-01-08T07:51:07;4.60;99.90
24802;DHT22;12898;50.520;12.152;2023-01-08T07:53:33;4.70;99.90
24802;DHT22;12898;50.520;12.152;2023-01-08T07:56:05;4.80;99.90
24802;DHT22;12898;50.520;12.152;2023-01-08T07:58:32;4.80;99.90
24802;DHT22;12898;50.520;12.152;2023-01-08T08:00:58;4.90;99.90
24802;DHT22;12898;50.520;12.152;2023-01-08T08:03:24;4.90;99.90
24802;DHT22;12898;50.520;12.152;2023-01-08T08:05:50;5.00;99.90
24802;DHT22;12898;50.520;12.152;2023-01-08T08:08:16;5.00;99.90
24802;DHT22;12898;50.520;12.152;2023-01-08T08:10:42;5.10;99.90
24802;DHT22;12898;50.520;12.152;2023-01-08T08:13:09;5.10;99.90
24802;DHT22;12898;50.520;12.152;2023-01-08T08:15:36;5.20;99.90
24802;DHT22;12898;50.520;12.152;2023-01-08T08:18:03;5.20;99.90
24802;DHT22;12898;50.520;12.152;2023-01-08T08:20:29;5.30;99.90
24802;DHT22;12898;50.520;12.152;2023-01-08T08:23:01;5.30;99.90
24802;DHT22;12898;50.520;12.152;2023-01-08T08:25:28;5.40;99.90
24802;DHT22;12898;50.520;12.152;2023-01-08T08:27:58;5.40;99.90
24802;DHT22;12898;50.520;12.152;2023-01-08T08:30:25;5.40;99.90
24802;DHT22;12898;50.520;12.152;2023-01-08T08:32:51;5.50;99.90
24802;DHT22;12898;50.520;12.152;2023-01-08T08:35:18;5.40;99.90
24802;DHT22;12898;50.520;12.152;2023-01-08T08:37:43;5.50;99.90
24802;DHT22;12898;50.520;12.152;2023-01-08T08:40:09;5.50;99.90
24802;DHT22;12898;50.520;12.152;2023-01-08T08:42:35;5.50;99.90
24802;DHT22;12898;50.520;12.152;2023-01-08T08:45:01;5.50;99.90
24802;DHT22;12898;50.520;12.152;2023-01-08T08:47:26;5.60;99.90
24802;DHT22;12898;50.520;12.152;2023-01-08T08:49:52;5.50;99.90
24802;DHT22;12898;50.520;12.152;2023-01-08T08:52:17;5.60;99.90
24802;DHT22;12898;50.520;12.152;2023-01-08T08:54:43;5.60;99.90
24802;DHT22;12898;50.520;12.152;2023-01-08T08:57:09;5.60;99.90
24802;DHT22;12898;50.520;12.152;2023-01-08T08:59:35;5.60;99.90
24802;DHT22;12898;50.520;12.152;2023-01-08T09:02:01;5.70;99.90
24802;DHT22;12898;50.520;12.152;2023-01-08T09:04:33;5.70;99.90
24802;DHT22;12898;50.520;12.152;2023-01-08T09:06:59;5.70;99.90
24802;DHT22;12898;50.520;12.152;2023-01-08T09:09:25;5.80;99.90
24802;DHT22;12898;50.520;12.152;2023-01-08T09:11:51;5.80;99.90
24802;DHT22;12898;50.520;12.152;2023-01-08T09:14:17;5.80;99.90
24802;DHT22;12898;50.520;12.152;2023-01-08T09:16:43;5.80;99.90
24802;DHT22;12898;50.520;12.152;2023-01-08T09:19:09;5.90;99.90
24802;DHT22;12898;50.520;12.152;2023-01-08T09:21:35;5.90;99.90
24802;DHT22;12898;50.520;12.152;2023-01-08T09:24:01;5.90;99.90
24802;DHT22;12898;50.520;12.152;2023-01-08T09:26:27;5.90;99.90
24802;DHT22;12898;50.520;12.152;2023-01-08T09:28:57;5.90;99.90
24802;DHT22;12898;50.520;12.152;2023-01-08T09:31:26;5.90;99.90
24802;DHT22;12898;50.520;12.152;2023-01-08T09:33:52;5.90;99.90
24802;DHT22;12898;50.520;12.152;2023-01-08T09:36:18;5.90;99.90
24802;DHT22;12898;50.520;12.152;2023-01-08T09:38:43;5.90;99.90
24802;DHT22;12898;50.520;12.152;2023-01-08T09:41:15;5.90;99.90
24802;DHT22;12898;50.520;12.152;2023-01-08T09:43:46;5.90;99.90
24802;DHT22;12898;50.520;12.152;2023-01-08T09:46:13;6.00;99.90
24802;DHT22;12898;50.520;12.152;2023-01-08T09:48:41;6.10;99.90
24802;DHT22;12898;50.520;12.152;2023-01-08T09:51:12;6.10;99.90
24802;DHT22;12898;50.520;12.152;2023-01-08T09:53:41;6.10;99.90
24802;DHT22;12898;50.520;12.152;2023-01-08T09:56:16;6.10;99.90
24802;DHT22;12898;50.520;12.152;2023-01-08T09:58:53;6.20;99.90
24802;DHT22;12898;50.520;12.152;2023-01-08T10:01:22;6.20;99.90
24802;DHT22;12898;50.520;12.152;2023-01-08T10:04:19;6.30;99.90
24802;DHT22;12898;50.520;12.152;2023-01-08T10:06:55;6.30;99.90
24802;DHT22;12898;50.520;12.152;2023-01-08T10:09:27;6.40;99.90
24802;DHT22;12898;50.520;12.152;2023-01-08T10:11:58;6.40;99.90
24802;DHT22;12898;50.520;12.152;2023-01-08T10:14:29;6.40;99.90
24802;DHT22;12898;50.520;12.152;2023-01-08T10:17:06;6.50;99.90
24802;DHT22;12898;50.520;12.152;2023-01-08T10:19:37;6.50;99.90
24802;DHT22;12898;50.520;12.152;2023-01-08T10:22:11;6.50;99.90
24802;DHT22;12898;50.520;12.152;2023-01-08T10:24:39;6.60;99.90
24802;DHT22;12898;50.520;12.152;2023-01-08T10:27:31;6.60;99.90
24802;DHT22;12898;50.520;12.152;2023-01-08T10:30:14;6.70;99.90
24802;DHT22;12898;50.520;12.152;2023-01-08T10:32:47;6.70;99.90
24802;DHT22;12898;50.520;12.152;2023-01-08T10:35:19;6.80;99.90
24802;DHT22;12898;50.520;12.152;2023-01-08T10:37:47;6.90;99.90
24802;DHT22;12898;50.520;12.152;2023-01-08T10:40:33;7.00;99.90
24802;DHT22;12898;50.520;12.152;2023-01-08T10:43:29;7.10;99.90
24802;DHT22;12898;50.520;12.152;2023-01-08T10:46:06;7.20;99.90
24802;DHT22;12898;50.520;12.152;2023-01-08T10:48:38;7.30;99.90
24802;DHT22;12898;50.520;12.152;2023-01-08T10:53:49;7.50;99.90
24802;DHT22;12898;50.520;12.152;2023-01-08T10:58:46;7.60;99.90
24802;DHT22;12898;50.520;12.152;2023-01-08T11:01:25;7.60;99.90
24802;DHT22;12898;50.520;12.152;2023-01-08T11:04:01;7.60;99.90
24802;DHT22;12898;50.520;12.152;2023-01-08T11:06:31;7.60;99.90
24802;DHT22;12898;50.520;12.152;2023-01-08T11:09:12;7.50;99.90
24802;DHT22;12898;50.520;12.152;2023-01-08T11:11:44;7.60;99.90
24802;DHT22;12898;50.520;12.152;2023-01-08T11:14:22;7.70;99.90
24802;DHT22;12898;50.520;12.152;2023-01-08T11:17:08;7.70;99.90
24802;DHT22;12898;50.520;12.152;2023-01-08T11:19:35;7.70;99.90
24802;DHT22;12898;50.520;12.152;2023-01-08T11:22:04;7.70;99.90
24802;DHT22;12898;50.520;12.152;2023-01-08T11:24:39;7.60;99.90
24802;DHT22;12898;50.520;12.152;2023-01-08T11:30:12;7.50;99.90
24802;DHT22;12898;50.520;12.152;2023-01-08T11:32:59;7.60;99.90
24802;DHT22;12898;50.520;12.152;2023-01-08T11:35:36;7.70;99.90
24802;DHT22;12898;50.520;12.152;2023-01-08T11:38:05;7.70;99.90
24802;DHT22;12898;50.520;12.152;2023-01-08T11:40:52;7.80;99.90
24802;DHT22;12898;50.520;12.152;2023-01-08T11:50:40;7.90;99.90
24802;DHT22;12898;50.520;12.152;2023-01-08T11:53:05;7.90;99.90
24802;DHT22;12898;50.520;12.152;2023-01-08T11:55:50;7.90;99.90
24802;DHT22;12898;50.520;12.152;2023-01-08T12:01:31;7.90;99.90
24802;DHT22;12898;50.520;12.152;2023-01-08T12:07:18;8.00;99.90
24802;DHT22;12898;50.520;12.152;2023-01-08T12:10:14;8.10;99.90
24802;DHT22;12898;50.520;12.152;2023-01-08T12:19:14;8.20;99.90
24802;DHT22;12898;50.520;12.152;2023-01-08T12:22:02;8.20;99.90
24802;DHT22;12898;50.520;12.152;2023-01-08T12:30:43;8.10;99.90
24802;DHT22;12898;50.520;12.152;2023-01-08T12:36:02;8.10;99.90
24802;DHT22;12898;50.520;12.152;2023-01-08T12:38:35;8.20;99.90
24802;DHT22;12898;50.520;12.152;2023-01-08T12:41:07;8.20;99.90
24802;DHT22;12898;50.520;12.152;2023-01-08T12:46:42;8.30;99.90
24802;DHT22;12898;50.520;12.152;2023-01-08T12:49:14;8.20;99.90
24802;DHT22;12898;50.520;12.152;2023-01-08T12:51:55;8.20;99.90
24802;DHT22;12898;50.520;12.152;2023-01-08T12:54:47;8.20;99.90
24802;DHT22;12898;50.520;12.152;2023-01-08T12:57:28;8.30;99.90
24802;DHT22;12898;50.520;12.152;2023-01-08T13:00:05;8.20;99.90
24802;DHT22;12898;50.520;12.152;2023-01-08T13:07:46;8.30;99.90
24802;DHT22;12898;50.520;12.152;2023-01-08T13:10:27;8.20;99.90
24802;DHT22;12898;50.520;12.152;2023-01-08T13:12:57;8.20;99.90
24802;DHT22;12898;50.520;12.152;2023-01-08T13:15:28;8.20;99.90
24802;DHT22;12898;50.520;12.152;2023-01-08T13:18:06;8.10;99.90
24802;DHT22;12898;50.520;12.152;2023-01-08T13:20:39;8.20;99.90
24802;DHT22;12898;50.520;12.152;2023-01-08T13:23:05;8.20;99.90
24802;DHT22;12898;50.520;12.152;2023-01-08T13:25:33;8.20;99.90
24802;DHT22;12898;50.520;12.152;2023-01-08T13:28:01;8.20;99.90
24802;DHT22;12898;50.520;12.152;2023-01-08T13:30:42;8.20;99.90
24802;DHT22;12898;50.520;12.152;2023-01-08T13:33:34;8.20;99.90
24802;DHT22;12898;50.520;12.152;2023-01-08T13:38:45;8.20;99.90
24802;DHT22;12898;50.520;12.152;2023-01-08T13:41:29;8.20;99.90
24802;DHT22;12898;50.520;12.152;2023-01-08T13:44:02;8.10;99.90
24802;DHT22;12898;50.520;12.152;2023-01-08T13:46:52;8.10;99.90
24802;DHT22;12898;50.520;12.152;2023-01-08T13:52:32;8.10;99.90
24802;DHT22;12898;50.520;12.152;2023-01-08T13:55:03;8.10;99.90
24802;DHT22;12898;50.520;12.152;2023-01-08T13:57:37;8.00;99.90
24802;DHT22;12898;50.520;12.152;2023-01-08T14:00:08;8.00;99.90
24802;DHT22;12898;50.520;12.152;2023-01-08T14:02:43;8.00;99.90
24802;DHT22;12898;50.520;12.152;2023-01-08T14:07:50;7.90;99.90
24802;DHT22;12898;50.520;12.152;2023-01-08T14:10:16;7.90;99.90
24802;DHT22;12898;50.520;12.152;2023-01-08T14:12:42;7.90;99.90
24802;DHT22;12898;50.520;12.152;2023-01-08T14:15:21;7.90;99.90
24802;DHT22;12898;50.520;12.152;2023-01-08T14:17:48;7.90;99.90
24802;DHT22;12898;50.520;12.152;2023-01-08T14:20:29;7.90;99.90
24802;DHT22;12898;50.520;12.152;2023-01-08T14:22:56;7.90;99.90
24802;DHT22;12898;50.520;12.152;2023-01-08T14:25:21;7.90;99.90
24802;DHT22;12898;50.520;12.152;2023-01-08T14:27:58;7.80;99.90
24802;DHT22;12898;50.520;12.152;2023-01-08T14:30:26;7.80;99.90
24802;DHT22;12898;50.520;12.152;2023-01-08T14:32:53;7.80;99.90
24802;DHT22;12898;50.520;12.152;2023-01-08T14:35:26;7.80;99.90
24802;DHT22;12898;50.520;12.152;2023-01-08T14:37:55;7.80;99.90
24802;DHT22;12898;50.520;12.152;2023-01-08T14:40:29;7.90;99.90
24802;DHT22;12898;50.520;12.152;2023-01-08T14:43:00;7.90;99.90
24802;DHT22;12898;50.520;12.152;2023-01-08T14:45:31;7.90;99.90
24802;DHT22;12898;50.520;12.152;2023-01-08T14:48:11;7.90;99.90
24802;DHT22;12898;50.520;12.152;2023-01-08T14:51:03;7.90;99.90
24802;DHT22;12898;50.520;12.152;2023-01-08T14:53:49;7.90;99.90
24802;DHT22;12898;50.520;12.152;2023-01-08T14:56:20;8.00;99.90
24802;DHT22;12898;50.520;12.152;2023-01-08T14:58:49;7.90;99.90
24802;DHT22;12898;50.520;12.152;2023-01-08T15:04:06;7.90;99.90
24802;DHT22;12898;50.520;12.152;2023-01-08T15:06:38;7.90;99.90
24802;DHT22;12898;50.520;12.152;2023-01-08T15:11:55;7.80;99.90
24802;DHT22;12898;50.520;12.152;2023-01-08T15:14:29;7.80;99.90
24802;DHT22;12898;50.520;12.152;2023-01-08T15:17:02;7.80;99.90
24802;DHT22;12898;50.520;12.152;2023-01-08T15:19:39;7.80;99.90
24802;DHT22;12898;50.520;12.152;2023-01-08T15:22:14;7.80;99.90
24802;DHT22;12898;50.520;12.152;2023-01-08T15:24:44;7.70;99.90
24802;DHT22;12898;50.520;12.152;2023-01-08T15:27:17;7.70;99.90
24802;DHT22;12898;50.520;12.152;2023-01-08T15:29:50;7.70;99.90
24802;DHT22;12898;50.520;12.152;2023-01-08T15:32:21;7.80;99.90
24802;DHT22;12898;50.520;12.152;2023-01-08T15:34:47;7.70;99.90
24802;DHT22;12898;50.520;12.152;2023-01-08T15:37:14;7.80;99.90
24802;DHT22;12898;50.520;12.152;2023-01-08T15:39:40;7.70;99.90
24802;DHT22;12898;50.520;12.152;2023-01-08T15:42:19;7.70;99.90
24802;DHT22;12898;50.520;12.152;2023-01-08T15:45:16;7.70;99.90
24802;DHT22;12898;50.520;12.152;2023-01-08T15:47:46;7.70;99.90
24802;DHT22;12898;50.520;12.152;2023-01-08T15:50:12;7.70;99.90
24802;DHT22;12898;50.520;12.152;2023-01-08T15:52:39;7.70;99.90
24802;DHT22;12898;50.520;12.152;2023-01-08T15:55:13;7.70;99.90
24802;DHT22;12898;50.520;12.152;2023-01-08T15:57:41;7.70;99.90
24802;DHT22;12898;50.520;12.152;2023-01-08T16:00:11;7.70;99.90
24802;DHT22;12898;50.520;12.152;2023-01-08T16:02:45;7.70;99.90
24802;DHT22;12898;50.520;12.152;2023-01-08T16:05:12;7.70;99.90
24802;DHT22;12898;50.520;12.152;2023-01-08T16:07:39;7.70;99.90
24802;DHT22;12898;50.520;12.152;2023-01-08T16:10:05;7.70;99.90
24802;DHT22;12898;50.520;12.152;2023-01-08T16:12:31;7.70;99.90
24802;DHT22;12898;50.520;12.152;2023-01-08T16:14:57;7.70;99.90
24802;DHT22;12898;50.520;12.152;2023-01-08T16:17:28;7.60;99.90
24802;DHT22;12898;50.520;12.152;2023-01-08T16:19:54;7.60;99.90
24802;DHT22;12898;50.520;12.152;2023-01-08T16:22:20;7.50;99.90
24802;DHT22;12898;50.520;12.152;2023-01-08T16:24:46;7.40;99.90
24802;DHT22;12898;50.520;12.152;2023-01-08T16:27:11;7.40;99.90
24802;DHT22;12898;50.520;12.152;2023-01-08T16:29:37;7.40;99.90
24802;DHT22;12898;50.520;12.152;2023-01-08T16:32:05;7.40;99.90
24802;DHT22;12898;50.520;12.152;2023-01-08T16:34:31;7.40;99.90
24802;DHT22;12898;50.520;12.152;2023-01-08T16:36:57;7.40;99.90
24802;DHT22;12898;50.520;12.152;2023-01-08T16:39:22;7.30;99.90
24802;DHT22;12898;50.520;12.152;2023-01-08T16:41:48;7.20;99.90
24802;DHT22;12898;50.520;12.152;2023-01-08T16:44:19;7.20;99.90
24802;DHT22;12898;50.520;12.152;2023-01-08T16:46:47;7.20;99.90
24802;DHT22;12898;50.520;12.152;2023-01-08T16:49:13;7.20;99.90
24802;DHT22;12898;50.520;12.152;2023-01-08T16:51:39;7.20;99.90
24802;DHT22;12898;50.520;12.152;2023-01-08T16:54:05;7.20;99.90
24802;DHT22;12898;50.520;12.152;2023-01-08T16:56:31;7.20;99.90
24802;DHT22;12898;50.520;12.152;2023-01-08T16:58:57;7.20;99.90